首页
METAR-TAF:

METAR-TAF

机场 :

圣约翰斯国际机场

聖約翰斯, 紐芬蘭-拉布拉多, 加拿大

纬度: 47-37N, 经度: 052-44W, 海拔: 134米

当前天气观测

该预报发布于11分钟前的17:00 UTC
风速6节,风向西转西南,在西南西北之间变化
温度 -6°C
湿度 86%
气压 1016 hPa
能見度: 24.1公里
阴天层高于1500英尺

METAR: CYYT 161700Z 25006KT 230V310 15SM OVC015 M06/M08 A2999 RMK SC8 SLP167

时间: 13:41 (17:11 UTC)

预报

该预报发布于1小时和55分钟前的15:16 UTC
预报有效从16日的 15点(UTC)到 17日的 12点(UTC)
风速10节,风向西
能見度: 10公里
阴天层高于2000英尺
短暂存在
从 16日的 15点(UTC)到 16日的 18点(UTC)
能見度: 8.0公里
阴天层高于900英尺
小阵雪
从 16日的 1800点(UTC)
风速12节,风向西
能見度: 10公里
多云层高于2000英尺
短暂存在
从 16日的 18点(UTC)到 17日的 02点(UTC)
散云层高于2000英尺
成为
从 16日的 19点(UTC)到 16日的 21点(UTC)
风速8节,风向西南
从 17日的 0200点(UTC)
风速15节,风向南转西南
能見度: 10公里
少量云层高于2000英尺
短暂存在
从 17日的 02点(UTC)到 17日的 12点(UTC)
多云层高于2000英尺
成为
从 17日的 06点(UTC)到 17日的 08点(UTC)
风速15节,风向,有时为25节阵风

TAF: CYYT 161516Z 1615/1712 28010KT P6SM OVC020 TEMPO 1615/1618 5SM -SHSN OVC009 FM161800 28012KT P6SM BKN020 TEMPO 1618/1702 SCT020 BECMG 1619/1621 23008KT FM170200 20015KT P6SM FEW020 TEMPO 1702/1712 BKN020 BECMG 1706/1708 19015G25KT RMK NXT FCST BY 161800Z

超过4000个机场的气象观测和天气预报(METAR&TAF报告)。

可查询的气象台以黄色和红色小点在地图上表示。

将鼠标移到小点上方,可查看气象台名称。

然后点击查看天气观测和预报。

如需切换地图:点击带黑十字的绿色按钮放大地图;点击带横线的绿色按钮缩小地图;或者点击绿色箭头查看邻近地区的地图。


METAR-TAF: